sensor_id;sensor_type;location;lat;lon;timestamp;P1;durP1;ratioP1;P2;durP2;ratioP2
58294;SDS011;45705;55.592;37.460;2023-06-10T00:00:39;6.72;;;4.18;;
58294;SDS011;45705;55.592;37.460;2023-06-10T00:03:09;13.65;;;3.83;;
58294;SDS011;45705;55.592;37.460;2023-06-10T00:05:36;4.38;;;3.22;;
58294;SDS011;45705;55.592;37.460;2023-06-10T00:08:04;10.50;;;4.05;;
58294;SDS011;45705;55.592;37.460;2023-06-10T00:10:34;9.90;;;3.20;;
58294;SDS011;45705;55.592;37.460;2023-06-10T00:13:01;12.75;;;3.38;;
58294;SDS011;45705;55.592;37.460;2023-06-10T00:15:29;9.20;;;3.20;;
58294;SDS011;45705;55.592;37.460;2023-06-10T00:17:55;7.30;;;3.78;;
58294;SDS011;45705;55.592;37.460;2023-06-10T00:20:21;7.05;;;3.50;;
58294;SDS011;45705;55.592;37.460;2023-06-10T00:22:51;9.20;;;3.50;;
58294;SDS011;45705;55.592;37.460;2023-06-10T00:25:17;6.40;;;3.97;;
58294;SDS011;45705;55.592;37.460;2023-06-10T00:27:43;5.82;;;3.85;;
58294;SDS011;45705;55.592;37.460;2023-06-10T00:30:09;6.22;;;3.42;;
58294;SDS011;45705;55.592;37.460;2023-06-10T00:32:36;8.60;;;3.95;;
58294;SDS011;45705;55.592;37.460;2023-06-10T00:35:02;5.72;;;3.00;;
58294;SDS011;45705;55.592;37.460;2023-06-10T00:39:57;6.97;;;3.33;;
58294;SDS011;45705;55.592;37.460;2023-06-10T00:42:24;5.13;;;2.80;;
58294;SDS011;45705;55.592;37.460;2023-06-10T00:44:50;5.25;;;3.10;;
58294;SDS011;45705;55.592;37.460;2023-06-10T00:47:16;6.20;;;3.30;;
58294;SDS011;45705;55.592;37.460;2023-06-10T00:49:42;6.07;;;3.22;;
58294;SDS011;45705;55.592;37.460;2023-06-10T00:52:09;7.55;;;3.20;;
58294;SDS011;45705;55.592;37.460;2023-06-10T00:54:36;6.43;;;3.25;;
58294;SDS011;45705;55.592;37.460;2023-06-10T00:57:04;3.75;;;2.80;;
58294;SDS011;45705;55.592;37.460;2023-06-10T00:59:31;5.13;;;2.72;;
58294;SDS011;45705;55.592;37.460;2023-06-10T01:01:57;6.35;;;2.92;;
58294;SDS011;45705;55.592;37.460;2023-06-10T01:04:24;7.72;;;3.17;;
58294;SDS011;45705;55.592;37.460;2023-06-10T01:09:23;3.97;;;3.20;;
58294;SDS011;45705;55.592;37.460;2023-06-10T01:12:15;6.82;;;3.72;;
58294;SDS011;45705;55.592;37.460;2023-06-10T01:14:48;6.85;;;3.60;;
58294;SDS011;45705;55.592;37.460;2023-06-10T01:17:16;7.07;;;3.60;;
58294;SDS011;45705;55.592;37.460;2023-06-10T01:19:43;8.55;;;3.42;;
58294;SDS011;45705;55.592;37.460;2023-06-10T01:22:09;5.03;;;3.80;;
58294;SDS011;45705;55.592;37.460;2023-06-10T01:24:36;7.10;;;4.20;;
58294;SDS011;45705;55.592;37.460;2023-06-10T01:27:08;6.85;;;3.45;;
58294;SDS011;45705;55.592;37.460;2023-06-10T01:29:42;6.40;;;3.50;;
58294;SDS011;45705;55.592;37.460;2023-06-10T01:32:21;7.35;;;3.30;;
58294;SDS011;45705;55.592;37.460;2023-06-10T01:34:52;7.82;;;3.50;;
58294;SDS011;45705;55.592;37.460;2023-06-10T01:37:19;3.90;;;3.20;;
58294;SDS011;45705;55.592;37.460;2023-06-10T01:39:47;5.35;;;3.47;;
58294;SDS011;45705;55.592;37.460;2023-06-10T01:42:14;7.63;;;3.40;;
58294;SDS011;45705;55.592;37.460;2023-06-10T01:44:41;15.63;;;3.42;;
58294;SDS011;45705;55.592;37.460;2023-06-10T01:47:08;9.10;;;2.65;;
58294;SDS011;45705;55.592;37.460;2023-06-10T01:49:34;6.93;;;3.15;;
58294;SDS011;45705;55.592;37.460;2023-06-10T01:52:00;7.32;;;3.30;;
58294;SDS011;45705;55.592;37.460;2023-06-10T01:54:26;4.20;;;2.80;;
58294;SDS011;45705;55.592;37.460;2023-06-10T01:56:52;6.72;;;2.83;;
58294;SDS011;45705;55.592;37.460;2023-06-10T01:59:18;3.88;;;2.95;;
58294;SDS011;45705;55.592;37.460;2023-06-10T02:01:44;4.90;;;3.10;;
58294;SDS011;45705;55.592;37.460;2023-06-10T02:04:10;5.47;;;3.70;;
58294;SDS011;45705;55.592;37.460;2023-06-10T02:06:35;10.98;;;3.33;;
58294;SDS011;45705;55.592;37.460;2023-06-10T02:09:03;5.20;;;3.55;;
58294;SDS011;45705;55.592;37.460;2023-06-10T02:11:28;4.68;;;3.13;;
58294;SDS011;45705;55.592;37.460;2023-06-10T02:13:54;9.60;;;3.80;;
58294;SDS011;45705;55.592;37.460;2023-06-10T02:16:20;7.50;;;3.50;;
58294;SDS011;45705;55.592;37.460;2023-06-10T02:18:46;6.35;;;3.28;;
58294;SDS011;45705;55.592;37.460;2023-06-10T02:21:14;3.80;;;2.30;;
58294;SDS011;45705;55.592;37.460;2023-06-10T02:23:40;5.72;;;3.17;;
58294;SDS011;45705;55.592;37.460;2023-06-10T02:26:05;3.42;;;2.72;;
58294;SDS011;45705;55.592;37.460;2023-06-10T02:28:31;5.47;;;2.95;;
58294;SDS011;45705;55.592;37.460;2023-06-10T02:30:58;4.32;;;2.70;;
58294;SDS011;45705;55.592;37.460;2023-06-10T02:33:25;4.60;;;2.47;;
58294;SDS011;45705;55.592;37.460;2023-06-10T02:35:53;4.15;;;3.00;;
58294;SDS011;45705;55.592;37.460;2023-06-10T02:38:19;6.10;;;3.08;;
58294;SDS011;45705;55.592;37.460;2023-06-10T02:40:45;7.00;;;3.03;;
58294;SDS011;45705;55.592;37.460;2023-06-10T02:43:12;11.07;;;3.03;;
58294;SDS011;45705;55.592;37.460;2023-06-10T02:45:37;5.63;;;2.90;;
58294;SDS011;45705;55.592;37.460;2023-06-10T02:48:04;5.32;;;2.80;;
58294;SDS011;45705;55.592;37.460;2023-06-10T02:50:31;6.78;;;3.30;;
58294;SDS011;45705;55.592;37.460;2023-06-10T02:53:15;7.22;;;3.42;;
58294;SDS011;45705;55.592;37.460;2023-06-10T02:55:46;6.43;;;2.88;;
58294;SDS011;45705;55.592;37.460;2023-06-10T02:58:16;8.00;;;3.17;;
58294;SDS011;45705;55.592;37.460;2023-06-10T03:00:42;7.80;;;3.90;;
58294;SDS011;45705;55.592;37.460;2023-06-10T03:03:11;6.57;;;3.20;;
58294;SDS011;45705;55.592;37.460;2023-06-10T03:05:46;4.80;;;3.00;;
58294;SDS011;45705;55.592;37.460;2023-06-10T03:08:14;7.25;;;3.63;;
58294;SDS011;45705;55.592;37.460;2023-06-10T03:10:42;4.93;;;2.47;;
58294;SDS011;45705;55.592;37.460;2023-06-10T03:13:09;8.02;;;3.58;;
58294;SDS011;45705;55.592;37.460;2023-06-10T03:15:36;9.40;;;3.70;;
58294;SDS011;45705;55.592;37.460;2023-06-10T03:18:07;10.35;;;3.30;;
58294;SDS011;45705;55.592;37.460;2023-06-10T03:20:33;3.50;;;3.03;;
58294;SDS011;45705;55.592;37.460;2023-06-10T03:23:04;7.25;;;3.35;;
58294;SDS011;45705;55.592;37.460;2023-06-10T03:25:32;5.22;;;3.15;;
58294;SDS011;45705;55.592;37.460;2023-06-10T03:27:58;6.22;;;3.28;;
58294;SDS011;45705;55.592;37.460;2023-06-10T03:30:24;7.18;;;2.83;;
58294;SDS011;45705;55.592;37.460;2023-06-10T03:32:50;3.72;;;2.78;;
58294;SDS011;45705;55.592;37.460;2023-06-10T03:35:18;7.60;;;3.00;;
58294;SDS011;45705;55.592;37.460;2023-06-10T03:37:44;4.18;;;2.83;;
58294;SDS011;45705;55.592;37.460;2023-06-10T03:40:10;6.70;;;3.10;;
58294;SDS011;45705;55.592;37.460;2023-06-10T03:42:39;4.00;;;2.50;;
58294;SDS011;45705;55.592;37.460;2023-06-10T03:45:05;5.85;;;2.65;;
58294;SDS011;45705;55.592;37.460;2023-06-10T03:47:34;6.30;;;2.22;;
58294;SDS011;45705;55.592;37.460;2023-06-10T03:50:07;7.55;;;2.40;;
58294;SDS011;45705;55.592;37.460;2023-06-10T03:52:37;7.50;;;2.63;;
58294;SDS011;45705;55.592;37.460;2023-06-10T03:57:30;6.13;;;2.47;;
58294;SDS011;45705;55.592;37.460;2023-06-10T03:59:56;6.43;;;2.15;;
58294;SDS011;45705;55.592;37.460;2023-06-10T04:02:23;6.45;;;2.08;;
58294;SDS011;45705;55.592;37.460;2023-06-10T04:04:49;2.92;;;1.90;;
58294;SDS011;45705;55.592;37.460;2023-06-10T04:07:16;5.80;;;2.00;;
58294;SDS011;45705;55.592;37.460;2023-06-10T04:09:44;4.70;;;1.95;;
58294;SDS011;45705;55.592;37.460;2023-06-10T04:12:10;4.78;;;2.10;;
58294;SDS011;45705;55.592;37.460;2023-06-10T04:14:36;7.25;;;2.03;;
58294;SDS011;45705;55.592;37.460;2023-06-10T04:17:04;10.68;;;3.20;;
58294;SDS011;45705;55.592;37.460;2023-06-10T04:19:34;12.07;;;4.80;;
58294;SDS011;45705;55.592;37.460;2023-06-10T04:22:00;7.20;;;3.55;;
58294;SDS011;45705;55.592;37.460;2023-06-10T04:24:28;5.38;;;2.40;;
58294;SDS011;45705;55.592;37.460;2023-06-10T04:26:54;5.93;;;2.40;;
58294;SDS011;45705;55.592;37.460;2023-06-10T04:29:20;5.82;;;2.30;;
58294;SDS011;45705;55.592;37.460;2023-06-10T04:31:46;6.30;;;2.80;;
58294;SDS011;45705;55.592;37.460;2023-06-10T04:34:12;12.00;;;2.95;;
58294;SDS011;45705;55.592;37.460;2023-06-10T04:36:39;8.55;;;3.05;;
58294;SDS011;45705;55.592;37.460;2023-06-10T04:39:05;8.07;;;2.30;;
58294;SDS011;45705;55.592;37.460;2023-06-10T04:41:32;10.43;;;2.85;;
58294;SDS011;45705;55.592;37.460;2023-06-10T04:43:57;13.88;;;2.78;;
58294;SDS011;45705;55.592;37.460;2023-06-10T04:46:24;4.35;;;2.88;;
58294;SDS011;45705;55.592;37.460;2023-06-10T04:48:50;7.63;;;2.63;;
58294;SDS011;45705;55.592;37.460;2023-06-10T04:51:16;5.68;;;2.70;;
58294;SDS011;45705;55.592;37.460;2023-06-10T04:53:42;5.82;;;2.30;;
58294;SDS011;45705;55.592;37.460;2023-06-10T04:56:08;7.85;;;2.55;;
58294;SDS011;45705;55.592;37.460;2023-06-10T04:58:34;5.32;;;2.30;;
58294;SDS011;45705;55.592;37.460;2023-06-10T05:00:59;5.68;;;2.47;;
58294;SDS011;45705;55.592;37.460;2023-06-10T05:03:26;8.27;;;2.13;;
58294;SDS011;45705;55.592;37.460;2023-06-10T05:05:52;8.82;;;2.60;;
58294;SDS011;45705;55.592;37.460;2023-06-10T05:08:17;7.72;;;2.00;;
58294;SDS011;45705;55.592;37.460;2023-06-10T05:10:43;3.53;;;1.90;;
58294;SDS011;45705;55.592;37.460;2023-06-10T05:13:09;4.05;;;1.80;;
58294;SDS011;45705;55.592;37.460;2023-06-10T05:15:35;3.10;;;1.70;;
58294;SDS011;45705;55.592;37.460;2023-06-10T05:18:02;1.83;;;1.37;;
58294;SDS011;45705;55.592;37.460;2023-06-10T05:20:28;3.38;;;1.70;;
58294;SDS011;45705;55.592;37.460;2023-06-10T05:22:54;2.30;;;1.65;;
58294;SDS011;45705;55.592;37.460;2023-06-10T05:25:20;7.22;;;2.67;;
58294;SDS011;45705;55.592;37.460;2023-06-10T05:27:46;4.90;;;1.90;;
58294;SDS011;45705;55.592;37.460;2023-06-10T05:30:11;4.85;;;2.22;;
58294;SDS011;45705;55.592;37.460;2023-06-10T05:32:38;9.55;;;1.80;;
58294;SDS011;45705;55.592;37.460;2023-06-10T05:35:04;6.30;;;1.85;;
58294;SDS011;45705;55.592;37.460;2023-06-10T05:37:30;6.03;;;1.60;;
58294;SDS011;45705;55.592;37.460;2023-06-10T05:39:56;7.78;;;1.75;;
58294;SDS011;45705;55.592;37.460;2023-06-10T05:42:21;4.80;;;2.00;;
58294;SDS011;45705;55.592;37.460;2023-06-10T05:44:47;4.95;;;1.77;;
58294;SDS011;45705;55.592;37.460;2023-06-10T05:47:13;4.13;;;1.83;;
58294;SDS011;45705;55.592;37.460;2023-06-10T05:49:38;8.02;;;2.03;;
58294;SDS011;45705;55.592;37.460;2023-06-10T05:52:04;5.65;;;1.77;;
58294;SDS011;45705;55.592;37.460;2023-06-10T05:54:30;6.93;;;1.90;;
58294;SDS011;45705;55.592;37.460;2023-06-10T05:56:56;4.07;;;2.20;;
58294;SDS011;45705;55.592;37.460;2023-06-10T05:59:22;8.55;;;1.92;;
58294;SDS011;45705;55.592;37.460;2023-06-10T06:01:48;8.70;;;1.90;;
58294;SDS011;45705;55.592;37.460;2023-06-10T06:04:15;9.00;;;2.80;;
58294;SDS011;45705;55.592;37.460;2023-06-10T06:06:41;6.75;;;2.72;;
58294;SDS011;45705;55.592;37.460;2023-06-10T06:09:07;6.78;;;2.40;;
58294;SDS011;45705;55.592;37.460;2023-06-10T06:11:33;8.68;;;3.35;;
58294;SDS011;45705;55.592;37.460;2023-06-10T06:14:00;4.70;;;2.03;;
58294;SDS011;45705;55.592;37.460;2023-06-10T06:16:26;5.05;;;2.30;;
58294;SDS011;45705;55.592;37.460;2023-06-10T06:18:51;7.15;;;2.40;;
58294;SDS011;45705;55.592;37.460;2023-06-10T06:21:17;5.25;;;1.90;;
58294;SDS011;45705;55.592;37.460;2023-06-10T06:23:43;3.08;;;1.75;;
58294;SDS011;45705;55.592;37.460;2023-06-10T06:26:08;4.10;;;2.40;;
58294;SDS011;45705;55.592;37.460;2023-06-10T06:28:34;7.53;;;2.10;;
58294;SDS011;45705;55.592;37.460;2023-06-10T06:31:00;6.85;;;2.60;;
58294;SDS011;45705;55.592;37.460;2023-06-10T06:33:26;3.00;;;2.30;;
58294;SDS011;45705;55.592;37.460;2023-06-10T06:35:52;7.05;;;2.50;;
58294;SDS011;45705;55.592;37.460;2023-06-10T06:38:17;9.90;;;2.60;;
58294;SDS011;45705;55.592;37.460;2023-06-10T06:40:43;5.75;;;2.15;;
58294;SDS011;45705;55.592;37.460;2023-06-10T06:43:09;3.47;;;2.17;;
58294;SDS011;45705;55.592;37.460;2023-06-10T06:45:41;6.97;;;2.63;;
58294;SDS011;45705;55.592;37.460;2023-06-10T06:48:06;2.92;;;1.80;;
58294;SDS011;45705;55.592;37.460;2023-06-10T06:50:32;4.72;;;2.38;;
58294;SDS011;45705;55.592;37.460;2023-06-10T06:52:58;5.80;;;2.60;;
58294;SDS011;45705;55.592;37.460;2023-06-10T06:55:24;12.60;;;5.50;;
58294;SDS011;45705;55.592;37.460;2023-06-10T06:57:49;8.75;;;3.40;;
58294;SDS011;45705;55.592;37.460;2023-06-10T07:00:15;5.55;;;2.20;;
58294;SDS011;45705;55.592;37.460;2023-06-10T07:02:41;5.13;;;1.92;;
58294;SDS011;45705;55.592;37.460;2023-06-10T07:05:07;11.70;;;2.85;;
58294;SDS011;45705;55.592;37.460;2023-06-10T07:07:34;2.47;;;2.00;;
58294;SDS011;45705;55.592;37.460;2023-06-10T07:10:00;5.28;;;1.90;;
58294;SDS011;45705;55.592;37.460;2023-06-10T07:12:26;5.65;;;2.22;;
58294;SDS011;45705;55.592;37.460;2023-06-10T07:14:51;7.45;;;2.40;;
58294;SDS011;45705;55.592;37.460;2023-06-10T07:17:17;3.95;;;2.15;;
58294;SDS011;45705;55.592;37.460;2023-06-10T07:19:44;7.20;;;2.65;;
58294;SDS011;45705;55.592;37.460;2023-06-10T07:22:10;5.35;;;2.55;;
58294;SDS011;45705;55.592;37.460;2023-06-10T07:24:35;3.83;;;2.38;;
58294;SDS011;45705;55.592;37.460;2023-06-10T07:27:01;7.50;;;2.95;;
58294;SDS011;45705;55.592;37.460;2023-06-10T07:29:27;4.38;;;1.65;;
58294;SDS011;45705;55.592;37.460;2023-06-10T07:31:53;5.38;;;1.95;;
58294;SDS011;45705;55.592;37.460;2023-06-10T07:34:18;2.72;;;2.20;;
58294;SDS011;45705;55.592;37.460;2023-06-10T07:36:44;4.10;;;2.00;;
58294;SDS011;45705;55.592;37.460;2023-06-10T07:39:10;2.13;;;1.63;;
58294;SDS011;45705;55.592;37.460;2023-06-10T07:41:36;3.38;;;1.65;;
58294;SDS011;45705;55.592;37.460;2023-06-10T07:44:01;4.20;;;1.73;;
58294;SDS011;45705;55.592;37.460;2023-06-10T07:46:28;4.47;;;1.90;;
58294;SDS011;45705;55.592;37.460;2023-06-10T07:48:54;2.35;;;1.50;;
58294;SDS011;45705;55.592;37.460;2023-06-10T07:51:20;7.07;;;1.60;;
58294;SDS011;45705;55.592;37.460;2023-06-10T07:53:47;3.58;;;1.48;;
58294;SDS011;45705;55.592;37.460;2023-06-10T07:56:13;3.75;;;1.50;;
58294;SDS011;45705;55.592;37.460;2023-06-10T07:58:38;4.05;;;1.70;;
58294;SDS011;45705;55.592;37.460;2023-06-10T08:01:04;3.55;;;1.60;;
58294;SDS011;45705;55.592;37.460;2023-06-10T08:03:30;5.97;;;1.83;;
58294;SDS011;45705;55.592;37.460;2023-06-10T08:05:56;3.78;;;1.50;;
58294;SDS011;45705;55.592;37.460;2023-06-10T08:08:22;5.43;;;1.67;;
58294;SDS011;45705;55.592;37.460;2023-06-10T08:10:48;4.28;;;1.63;;
58294;SDS011;45705;55.592;37.460;2023-06-10T08:13:16;6.03;;;2.00;;
58294;SDS011;45705;55.592;37.460;2023-06-10T08:15:41;5.10;;;1.60;;
58294;SDS011;45705;55.592;37.460;2023-06-10T08:18:07;2.28;;;1.73;;
58294;SDS011;45705;55.592;37.460;2023-06-10T08:20:33;2.88;;;1.50;;
58294;SDS011;45705;55.592;37.460;2023-06-10T08:22:58;7.72;;;1.75;;
58294;SDS011;45705;55.592;37.460;2023-06-10T08:25:24;14.27;;;1.92;;
58294;SDS011;45705;55.592;37.460;2023-06-10T08:27:50;8.18;;;2.97;;
58294;SDS011;45705;55.592;37.460;2023-06-10T08:30:17;3.65;;;1.73;;
58294;SDS011;45705;55.592;37.460;2023-06-10T08:32:43;7.88;;;2.45;;
58294;SDS011;45705;55.592;37.460;2023-06-10T08:35:09;3.70;;;1.55;;
58294;SDS011;45705;55.592;37.460;2023-06-10T08:37:35;1.70;;;1.38;;
58294;SDS011;45705;55.592;37.460;2023-06-10T08:40:01;1.38;;;1.20;;
58294;SDS011;45705;55.592;37.460;2023-06-10T08:42:28;3.50;;;1.30;;
58294;SDS011;45705;55.592;37.460;2023-06-10T08:44:58;2.80;;;1.40;;
58294;SDS011;45705;55.592;37.460;2023-06-10T08:47:29;3.05;;;1.45;;
58294;SDS011;45705;55.592;37.460;2023-06-10T08:50:11;3.35;;;1.52;;
58294;SDS011;45705;55.592;37.460;2023-06-10T08:52:37;4.43;;;1.70;;
58294;SDS011;45705;55.592;37.460;2023-06-10T08:55:12;3.13;;;1.45;;
58294;SDS011;45705;55.592;37.460;2023-06-10T08:57:41;6.38;;;2.20;;
58294;SDS011;45705;55.592;37.460;2023-06-10T09:00:10;5.43;;;2.25;;
58294;SDS011;45705;55.592;37.460;2023-06-10T09:02:36;5.20;;;1.90;;
58294;SDS011;45705;55.592;37.460;2023-06-10T09:05:02;4.00;;;1.23;;
58294;SDS011;45705;55.592;37.460;2023-06-10T09:07:30;3.15;;;1.30;;
58294;SDS011;45705;55.592;37.460;2023-06-10T09:10:01;3.72;;;1.60;;
58294;SDS011;45705;55.592;37.460;2023-06-10T09:12:33;3.28;;;1.30;;
58294;SDS011;45705;55.592;37.460;2023-06-10T09:15:01;4.00;;;1.40;;
58294;SDS011;45705;55.592;37.460;2023-06-10T09:17:30;1.98;;;1.30;;
58294;SDS011;45705;55.592;37.460;2023-06-10T09:19:56;4.53;;;1.75;;
58294;SDS011;45705;55.592;37.460;2023-06-10T09:22:22;2.80;;;1.38;;
58294;SDS011;45705;55.592;37.460;2023-06-10T09:24:49;4.82;;;1.23;;
58294;SDS011;45705;55.592;37.460;2023-06-10T09:27:15;4.32;;;1.40;;
58294;SDS011;45705;55.592;37.460;2023-06-10T09:29:47;8.48;;;2.45;;
58294;SDS011;45705;55.592;37.460;2023-06-10T09:32:18;7.25;;;2.35;;
58294;SDS011;45705;55.592;37.460;2023-06-10T09:34:44;1.23;;;1.02;;
58294;SDS011;45705;55.592;37.460;2023-06-10T09:37:10;4.00;;;1.30;;
58294;SDS011;45705;55.592;37.460;2023-06-10T09:39:37;1.98;;;1.50;;
58294;SDS011;45705;55.592;37.460;2023-06-10T09:42:16;4.00;;;1.98;;
58294;SDS011;45705;55.592;37.460;2023-06-10T09:44:48;5.63;;;1.30;;
58294;SDS011;45705;55.592;37.460;2023-06-10T09:47:21;5.15;;;1.88;;
58294;SDS011;45705;55.592;37.460;2023-06-10T09:49:48;8.18;;;1.52;;
58294;SDS011;45705;55.592;37.460;2023-06-10T09:52:22;5.20;;;1.88;;
58294;SDS011;45705;55.592;37.460;2023-06-10T09:54:50;10.43;;;2.90;;
58294;SDS011;45705;55.592;37.460;2023-06-10T09:57:17;7.53;;;2.53;;
58294;SDS011;45705;55.592;37.460;2023-06-10T09:59:44;8.93;;;1.60;;
58294;SDS011;45705;55.592;37.460;2023-06-10T10:02:17;5.43;;;1.55;;
58294;SDS011;45705;55.592;37.460;2023-06-10T10:04:43;2.10;;;1.15;;
58294;SDS011;45705;55.592;37.460;2023-06-10T10:07:10;6.47;;;1.23;;
58294;SDS011;45705;55.592;37.460;2023-06-10T10:09:39;1.50;;;1.20;;
58294;SDS011;45705;55.592;37.460;2023-06-10T10:12:10;1.95;;;0.98;;
58294;SDS011;45705;55.592;37.460;2023-06-10T10:14:37;2.33;;;0.80;;
58294;SDS011;45705;55.592;37.460;2023-06-10T10:17:07;7.82;;;2.65;;
58294;SDS011;45705;55.592;37.460;2023-06-10T10:19:55;5.00;;;2.03;;
58294;SDS011;45705;55.592;37.460;2023-06-10T10:22:30;2.50;;;1.05;;
58294;SDS011;45705;55.592;37.460;2023-06-10T10:25:01;4.55;;;1.73;;
58294;SDS011;45705;55.592;37.460;2023-06-10T10:27:42;4.13;;;1.38;;
58294;SDS011;45705;55.592;37.460;2023-06-10T10:30:10;7.47;;;2.42;;
58294;SDS011;45705;55.592;37.460;2023-06-10T10:32:43;15.13;;;2.65;;
58294;SDS011;45705;55.592;37.460;2023-06-10T10:35:17;7.00;;;1.90;;
58294;SDS011;45705;55.592;37.460;2023-06-10T10:37:48;5.50;;;1.42;;
58294;SDS011;45705;55.592;37.460;2023-06-10T10:40:16;7.80;;;2.10;;
58294;SDS011;45705;55.592;37.460;2023-06-10T10:42:42;4.45;;;2.40;;
58294;SDS011;45705;55.592;37.460;2023-06-10T10:45:09;7.47;;;1.92;;
58294;SDS011;45705;55.592;37.460;2023-06-10T10:47:35;3.30;;;1.00;;
58294;SDS011;45705;55.592;37.460;2023-06-10T10:50:03;7.65;;;2.15;;
58294;SDS011;45705;55.592;37.460;2023-06-10T10:55:19;4.70;;;1.45;;
58294;SDS011;45705;55.592;37.460;2023-06-10T10:57:48;4.15;;;1.58;;
58294;SDS011;45705;55.592;37.460;2023-06-10T11:00:33;3.67;;;1.58;;
58294;SDS011;45705;55.592;37.460;2023-06-10T11:05:39;4.32;;;2.00;;
58294;SDS011;45705;55.592;37.460;2023-06-10T11:08:08;4.88;;;1.75;;
58294;SDS011;45705;55.592;37.460;2023-06-10T11:13:20;5.82;;;1.60;;
58294;SDS011;45705;55.592;37.460;2023-06-10T11:15:47;6.40;;;2.10;;
58294;SDS011;45705;55.592;37.460;2023-06-10T11:21:01;6.20;;;2.10;;
58294;SDS011;45705;55.592;37.460;2023-06-10T11:23:32;3.05;;;1.88;;
58294;SDS011;45705;55.592;37.460;2023-06-10T11:31:22;9.75;;;2.30;;
58294;SDS011;45705;55.592;37.460;2023-06-10T11:33:48;6.82;;;2.10;;
58294;SDS011;45705;55.592;37.460;2023-06-10T11:36:19;1.92;;;1.30;;
58294;SDS011;45705;55.592;37.460;2023-06-10T11:38:45;4.85;;;1.52;;
58294;SDS011;45705;55.592;37.460;2023-06-10T11:41:12;6.80;;;2.00;;
58294;SDS011;45705;55.592;37.460;2023-06-10T11:43:43;3.80;;;1.60;;
58294;SDS011;45705;55.592;37.460;2023-06-10T11:46:12;5.15;;;2.05;;
58294;SDS011;45705;55.592;37.460;2023-06-10T11:48:39;18.60;;;2.60;;
58294;SDS011;45705;55.592;37.460;2023-06-10T11:51:08;14.27;;;2.10;;
58294;SDS011;45705;55.592;37.460;2023-06-10T11:53:34;8.00;;;1.85;;
58294;SDS011;45705;55.592;37.460;2023-06-10T11:56:00;7.68;;;2.10;;
58294;SDS011;45705;55.592;37.460;2023-06-10T11:58:26;10.07;;;2.10;;
58294;SDS011;45705;55.592;37.460;2023-06-10T12:00:53;9.07;;;2.20;;
58294;SDS011;45705;55.592;37.460;2023-06-10T12:03:23;12.32;;;2.90;;
58294;SDS011;45705;55.592;37.460;2023-06-10T12:05:56;4.90;;;1.98;;
58294;SDS011;45705;55.592;37.460;2023-06-10T12:08:22;7.93;;;3.33;;
58294;SDS011;45705;55.592;37.460;2023-06-10T12:10:48;11.00;;;2.17;;
58294;SDS011;45705;55.592;37.460;2023-06-10T12:13:14;7.28;;;2.90;;
58294;SDS011;45705;55.592;37.460;2023-06-10T12:15:40;4.35;;;1.30;;
58294;SDS011;45705;55.592;37.460;2023-06-10T12:18:06;13.15;;;2.17;;
58294;SDS011;45705;55.592;37.460;2023-06-10T12:20:32;3.67;;;1.25;;
58294;SDS011;45705;55.592;37.460;2023-06-10T12:23:00;4.80;;;1.50;;
58294;SDS011;45705;55.592;37.460;2023-06-10T12:25:33;9.65;;;2.03;;
58294;SDS011;45705;55.592;37.460;2023-06-10T12:27:59;3.13;;;1.75;;
58294;SDS011;45705;55.592;37.460;2023-06-10T12:30:25;6.05;;;1.60;;
58294;SDS011;45705;55.592;37.460;2023-06-10T12:32:52;4.25;;;1.98;;
58294;SDS011;45705;55.592;37.460;2023-06-10T12:35:20;4.32;;;1.23;;
58294;SDS011;45705;55.592;37.460;2023-06-10T12:38:02;7.63;;;2.53;;
58294;SDS011;45705;55.592;37.460;2023-06-10T12:40:36;10.55;;;3.70;;
58294;SDS011;45705;55.592;37.460;2023-06-10T12:43:03;13.20;;;3.13;;
58294;SDS011;45705;55.592;37.460;2023-06-10T12:45:32;2.38;;;1.30;;
58294;SDS011;45705;55.592;37.460;2023-06-10T12:50:41;4.00;;;1.70;;
58294;SDS011;45705;55.592;37.460;2023-06-10T12:53:08;4.70;;;1.20;;
58294;SDS011;45705;55.592;37.460;2023-06-10T12:55:34;6.72;;;1.60;;
58294;SDS011;45705;55.592;37.460;2023-06-10T12:58:00;3.50;;;1.38;;
58294;SDS011;45705;55.592;37.460;2023-06-10T13:00:27;4.40;;;1.17;;
58294;SDS011;45705;55.592;37.460;2023-06-10T13:02:56;2.60;;;1.38;;
58294;SDS011;45705;55.592;37.460;2023-06-10T13:05:23;1.30;;;0.77;;
58294;SDS011;45705;55.592;37.460;2023-06-10T13:07:48;2.97;;;1.15;;
58294;SDS011;45705;55.592;37.460;2023-06-10T13:10:15;4.47;;;1.10;;
58294;SDS011;45705;55.592;37.460;2023-06-10T13:12:42;3.70;;;1.20;;
58294;SDS011;45705;55.592;37.460;2023-06-10T13:15:09;2.45;;;1.17;;
58294;SDS011;45705;55.592;37.460;2023-06-10T13:17:35;6.15;;;1.70;;
58294;SDS011;45705;55.592;37.460;2023-06-10T13:20:04;9.23;;;2.63;;
58294;SDS011;45705;55.592;37.460;2023-06-10T13:22:31;3.35;;;1.60;;
58294;SDS011;45705;55.592;37.460;2023-06-10T13:24:58;5.05;;;1.55;;
58294;SDS011;45705;55.592;37.460;2023-06-10T13:27:25;4.32;;;1.60;;
58294;SDS011;45705;55.592;37.460;2023-06-10T13:29:50;4.93;;;1.52;;
58294;SDS011;45705;55.592;37.460;2023-06-10T13:32:16;2.55;;;1.55;;
58294;SDS011;45705;55.592;37.460;2023-06-10T13:34:42;8.05;;;1.55;;
58294;SDS011;45705;55.592;37.460;2023-06-10T13:37:07;5.90;;;1.90;;
58294;SDS011;45705;55.592;37.460;2023-06-10T13:39:33;3.35;;;1.42;;
58294;SDS011;45705;55.592;37.460;2023-06-10T13:41:59;5.68;;;2.22;;
58294;SDS011;45705;55.592;37.460;2023-06-10T13:44:24;3.67;;;1.60;;
58294;SDS011;45705;55.592;37.460;2023-06-10T13:46:50;6.70;;;2.75;;
58294;SDS011;45705;55.592;37.460;2023-06-10T13:49:16;3.17;;;1.50;;
58294;SDS011;45705;55.592;37.460;2023-06-10T13:51:42;4.68;;;1.70;;
58294;SDS011;45705;55.592;37.460;2023-06-10T13:54:07;5.75;;;1.42;;
58294;SDS011;45705;55.592;37.460;2023-06-10T13:56:33;10.05;;;1.73;;
58294;SDS011;45705;55.592;37.460;2023-06-10T13:59:03;5.63;;;1.73;;
58294;SDS011;45705;55.592;37.460;2023-06-10T14:01:29;4.60;;;2.00;;
58294;SDS011;45705;55.592;37.460;2023-06-10T14:03:55;5.45;;;2.47;;
58294;SDS011;45705;55.592;37.460;2023-06-10T14:06:20;14.00;;;3.38;;
58294;SDS011;45705;55.592;37.460;2023-06-10T14:08:46;3.72;;;1.38;;
58294;SDS011;45705;55.592;37.460;2023-06-10T14:11:12;6.43;;;1.95;;
58294;SDS011;45705;55.592;37.460;2023-06-10T14:13:38;6.53;;;1.25;;
58294;SDS011;45705;55.592;37.460;2023-06-10T14:16:04;3.65;;;1.30;;
58294;SDS011;45705;55.592;37.460;2023-06-10T14:18:30;4.70;;;1.48;;
58294;SDS011;45705;55.592;37.460;2023-06-10T14:20:56;8.07;;;1.48;;
58294;SDS011;45705;55.592;37.460;2023-06-10T14:23:21;8.38;;;2.05;;
58294;SDS011;45705;55.592;37.460;2023-06-10T14:25:47;2.50;;;1.35;;
58294;SDS011;45705;55.592;37.460;2023-06-10T14:28:13;2.58;;;1.60;;
58294;SDS011;45705;55.592;37.460;2023-06-10T14:30:38;2.88;;;1.52;;
58294;SDS011;45705;55.592;37.460;2023-06-10T14:33:05;2.10;;;1.35;;
58294;SDS011;45705;55.592;37.460;2023-06-10T14:35:31;5.05;;;1.83;;
58294;SDS011;45705;55.592;37.460;2023-06-10T14:37:57;5.13;;;1.20;;
58294;SDS011;45705;55.592;37.460;2023-06-10T14:40:22;3.25;;;1.45;;
58294;SDS011;45705;55.592;37.460;2023-06-10T14:42:50;5.72;;;2.10;;
58294;SDS011;45705;55.592;37.460;2023-06-10T14:45:17;6.10;;;1.80;;
58294;SDS011;45705;55.592;37.460;2023-06-10T14:47:42;4.05;;;1.30;;
58294;SDS011;45705;55.592;37.460;2023-06-10T14:50:08;3.40;;;1.60;;
58294;SDS011;45705;55.592;37.460;2023-06-10T14:52:34;4.40;;;1.00;;
58294;SDS011;45705;55.592;37.460;2023-06-10T14:55:00;4.43;;;1.20;;
58294;SDS011;45705;55.592;37.460;2023-06-10T14:57:26;4.55;;;1.10;;
58294;SDS011;45705;55.592;37.460;2023-06-10T14:59:51;10.43;;;1.83;;